createdAt,value
2023-02-03T00:00:05.410Z,87
2023-02-03T00:02:07.390Z,87
2023-02-03T00:04:05.730Z,87
2023-02-03T00:06:07.801Z,87
2023-02-03T00:08:08.124Z,87
2023-02-03T00:10:07.893Z,87
2023-02-03T00:12:04.820Z,87
2023-02-03T00:16:04.921Z,87
2023-02-03T00:18:05.026Z,87
2023-02-03T00:22:04.931Z,87
2023-02-03T00:24:04.804Z,87
2023-02-03T00:28:01.631Z,87
2023-02-03T00:30:05.988Z,87
2023-02-03T00:34:01.910Z,87
2023-02-03T00:36:06.354Z,87
2023-02-03T00:38:07.781Z,87
2023-02-03T00:42:04.800Z,86
2023-02-03T00:46:04.743Z,86
2023-02-03T00:48:04.780Z,86
2023-02-03T00:52:04.828Z,86
2023-02-03T00:54:05.554Z,86
2023-02-03T00:56:07.778Z,86
2023-02-03T00:58:04.770Z,86
2023-02-03T01:00:06.765Z,87
2023-02-03T01:04:05.075Z,86
2023-02-03T01:06:07.120Z,87
2023-02-03T01:08:07.338Z,86
2023-02-03T01:10:04.919Z,87
2023-02-03T01:12:04.988Z,86
2023-02-03T01:16:01.904Z,86
2023-02-03T01:18:06.451Z,86
2023-02-03T01:22:04.872Z,86
2023-02-03T01:24:07.547Z,86
2023-02-03T01:28:04.540Z,86
2023-02-03T01:30:06.138Z,86
2023-02-03T01:32:07.923Z,85
2023-02-03T01:34:04.674Z,86
2023-02-03T01:36:07.383Z,86
2023-02-03T01:38:07.741Z,86
2023-02-03T01:40:01.728Z,86
2023-02-03T01:42:04.820Z,85
2023-02-03T01:44:07.328Z,86
2023-02-03T01:46:04.937Z,85
2023-02-03T01:48:07.854Z,86
2023-02-03T01:52:04.733Z,86
2023-02-03T01:54:04.756Z,86
2023-02-03T01:56:07.838Z,86
2023-02-03T01:58:05.588Z,86
2023-02-03T02:00:01.580Z,86
2023-02-03T02:02:08.278Z,86
2023-02-03T02:04:04.823Z,86
2023-02-03T02:06:04.896Z,86
2023-02-03T02:10:05.649Z,86
2023-02-03T02:12:06.756Z,86
2023-02-03T02:14:06.755Z,86
2023-02-03T02:16:04.261Z,86
2023-02-03T02:18:05.158Z,86
2023-02-03T02:22:05.181Z,86
2023-02-03T02:24:06.408Z,86
2023-02-03T02:28:04.887Z,86
2023-02-03T02:30:02.937Z,86
2023-02-03T02:32:07.815Z,86
2023-02-03T02:34:04.758Z,86
2023-02-03T02:36:06.965Z,86
2023-02-03T02:38:05.467Z,86
2023-02-03T02:40:04.798Z,86
2023-02-03T02:42:11.500Z,86
2023-02-03T02:44:07.709Z,86
2023-02-03T02:46:07.731Z,86
2023-02-03T02:48:05.900Z,86
2023-02-03T02:50:07.684Z,86
2023-02-03T02:52:06.249Z,86
2023-02-03T02:54:04.844Z,86
2023-02-03T02:58:04.891Z,86
2023-02-03T03:00:01.671Z,86
2023-02-03T03:04:07.948Z,85
2023-02-03T03:06:06.768Z,85
2023-02-03T03:08:07.742Z,85
2023-02-03T03:10:05.618Z,85
2023-02-03T03:12:05.660Z,86
2023-02-03T03:16:03.050Z,86
2023-02-03T03:18:04.797Z,85
2023-02-03T03:22:04.442Z,85
2023-02-03T03:24:06.357Z,85
2023-02-03T03:26:07.765Z,85
2023-02-03T03:28:04.712Z,85
2023-02-03T03:30:04.941Z,85
2023-02-03T03:34:06.496Z,85
2023-02-03T03:36:05.670Z,85
2023-02-03T03:38:07.904Z,85
2023-02-03T03:40:01.617Z,85
2023-02-03T03:42:08.034Z,85
2023-02-03T03:46:04.948Z,85
2023-02-03T03:48:06.256Z,85
2023-02-03T03:50:07.707Z,85
2023-02-03T03:52:04.849Z,85
2023-02-03T03:54:04.804Z,85
2023-02-03T03:58:05.062Z,85
2023-02-03T04:00:05.423Z,85
2023-02-03T04:04:04.899Z,85
2023-02-03T04:06:06.463Z,85
2023-02-03T04:08:07.815Z,85
2023-02-03T04:10:04.980Z,85
2023-02-03T04:12:10.966Z,85
2023-02-03T04:14:07.676Z,85
2023-02-03T04:16:04.836Z,85
2023-02-03T04:18:04.908Z,85
2023-02-03T04:22:04.816Z,85
2023-02-03T04:24:04.927Z,84
2023-02-03T04:28:04.992Z,85
2023-02-03T04:30:08.514Z,85
2023-02-03T04:32:08.058Z,85
2023-02-03T04:34:04.862Z,85
2023-02-03T04:36:04.799Z,85
2023-02-03T04:40:05.258Z,85
2023-02-03T04:42:04.853Z,85
2023-02-03T04:46:06.579Z,85
2023-02-03T04:48:04.979Z,84
2023-02-03T04:50:07.770Z,84
2023-02-03T04:54:06.382Z,85
2023-02-03T04:56:07.595Z,85
2023-02-03T04:58:04.551Z,85
2023-02-03T05:00:05.028Z,85
2023-02-03T05:04:04.889Z,85
2023-02-03T05:06:03.377Z,85
2023-02-03T05:10:06.966Z,84
2023-02-03T05:12:08.043Z,84
2023-02-03T05:14:07.665Z,84
2023-02-03T05:16:04.900Z,85
2023-02-03T05:18:04.618Z,84
2023-02-03T05:20:06.435Z,84
2023-02-03T05:22:07.703Z,84
2023-02-03T05:24:04.952Z,84
2023-02-03T05:28:04.673Z,84
2023-02-03T05:30:04.948Z,84
2023-02-03T05:34:04.911Z,84
2023-02-03T05:36:04.803Z,84
2023-02-03T05:38:04.657Z,84
2023-02-03T05:40:05.029Z,84
2023-02-03T05:42:07.987Z,84
2023-02-03T05:44:07.862Z,84
2023-02-03T05:46:05.367Z,84
2023-02-03T05:48:03.055Z,84
2023-02-03T05:52:04.911Z,84
2023-02-03T05:54:07.933Z,84
2023-02-03T05:58:04.530Z,84
2023-02-03T06:00:08.289Z,84
2023-02-03T06:02:07.923Z,84
2023-02-03T06:04:08.162Z,84
2023-02-03T06:06:06.533Z,84
2023-02-03T06:10:11.448Z,84
2023-02-03T06:12:04.861Z,84
2023-02-03T06:16:04.861Z,84
2023-02-03T06:18:03.008Z,84
2023-02-03T06:20:07.831Z,84
2023-02-03T06:22:02.978Z,84
2023-02-03T06:24:04.940Z,84
2023-02-03T06:28:06.259Z,84
2023-02-03T06:30:04.861Z,84
2023-02-03T06:32:04.891Z,84
2023-02-03T06:34:06.026Z,83
2023-02-03T06:36:08.233Z,84
2023-02-03T06:38:07.880Z,83
2023-02-03T06:40:04.972Z,84
2023-02-03T06:42:07.048Z,84
2023-02-03T06:44:07.924Z,84
2023-02-03T06:46:04.900Z,84
2023-02-03T06:50:07.979Z,84
2023-02-03T06:52:05.036Z,84
2023-02-03T06:54:07.963Z,84
2023-02-03T06:56:04.818Z,84
2023-02-03T06:58:05.036Z,84
2023-02-03T07:00:04.495Z,84
2023-02-03T07:04:08.007Z,84
2023-02-03T07:06:04.838Z,84
2023-02-03T07:10:08.038Z,85
2023-02-03T07:12:04.390Z,84
2023-02-03T07:16:05.401Z,85
2023-02-03T07:18:07.035Z,84
2023-02-03T07:22:06.956Z,85
2023-02-03T07:24:06.565Z,85
2023-02-03T07:26:04.863Z,85
2023-02-03T07:28:05.108Z,85
2023-02-03T07:30:07.283Z,85
2023-02-03T07:32:08.201Z,84
2023-02-03T07:34:06.552Z,84
2023-02-03T07:36:06.582Z,84
2023-02-03T07:38:07.642Z,84
2023-02-03T07:40:04.543Z,84
2023-02-03T07:42:05.978Z,84
2023-02-03T07:44:08.262Z,84
2023-02-03T07:46:01.710Z,84
2023-02-03T07:48:04.993Z,84
2023-02-03T07:52:03.408Z,84
2023-02-03T07:56:10.902Z,83
2023-02-03T07:58:08.399Z,84
2023-02-03T08:00:05.132Z,84
2023-02-03T08:02:07.996Z,84
2023-02-03T08:04:04.997Z,84
2023-02-03T08:06:03.563Z,84
2023-02-03T08:08:08.302Z,84
2023-02-03T08:10:04.584Z,84
2023-02-03T08:12:04.916Z,84
2023-02-03T08:14:08.059Z,84
2023-02-03T08:16:11.605Z,84
2023-02-03T08:18:04.864Z,84
2023-02-03T08:20:11.373Z,83
2023-02-03T08:22:04.920Z,84
2023-02-03T08:24:07.558Z,84
2023-02-03T08:28:08.381Z,83
2023-02-03T08:30:05.873Z,83
2023-02-03T08:34:07.345Z,84
2023-02-03T08:36:04.879Z,83
2023-02-03T08:38:06.650Z,83
2023-02-03T08:40:04.992Z,83
2023-02-03T08:42:04.500Z,83
2023-02-03T08:44:02.826Z,83
2023-02-03T08:46:04.916Z,83
2023-02-03T08:48:11.313Z,83
2023-02-03T08:52:04.963Z,83
2023-02-03T08:54:08.684Z,83
2023-02-03T08:56:07.584Z,83
2023-02-03T08:58:08.048Z,83
2023-02-03T09:00:07.350Z,83
2023-02-03T09:02:07.785Z,83
2023-02-03T09:04:05.023Z,83
2023-02-03T09:06:05.234Z,83
2023-02-03T09:08:06.921Z,84
2023-02-03T09:10:04.715Z,83
2023-02-03T09:12:04.890Z,83
2023-02-03T09:14:06.659Z,83
2023-02-03T09:16:05.745Z,83
2023-02-03T09:18:04.894Z,82
2023-02-03T09:20:06.951Z,82
2023-02-03T09:22:04.933Z,82
2023-02-03T09:24:04.851Z,82
2023-02-03T09:26:08.067Z,82
2023-02-03T09:28:05.081Z,82
2023-02-03T09:30:03.586Z,82
2023-02-03T09:32:04.875Z,82
2023-02-03T09:34:04.858Z,83
2023-02-03T09:36:04.911Z,82
2023-02-03T09:38:06.620Z,82
2023-02-03T09:42:05.772Z,82
2023-02-03T09:44:07.773Z,82
2023-02-03T09:46:02.287Z,83
2023-02-03T09:48:04.984Z,82
2023-02-03T09:52:08.138Z,82
2023-02-03T09:54:04.909Z,82
2023-02-03T09:58:04.984Z,82
2023-02-03T10:00:06.073Z,82
2023-02-03T10:02:08.141Z,82
2023-02-03T10:04:04.908Z,82
2023-02-03T10:06:05.042Z,82
2023-02-03T10:08:04.817Z,82
2023-02-03T10:10:02.264Z,82
2023-02-03T10:12:07.977Z,82
2023-02-03T10:14:04.778Z,82
2023-02-03T10:16:05.225Z,82
2023-02-03T10:18:05.153Z,82
2023-02-03T10:20:01.727Z,82
2023-02-03T10:22:04.952Z,82
2023-02-03T10:24:04.777Z,81
2023-02-03T10:28:05.094Z,81
2023-02-03T10:30:04.847Z,81
2023-02-03T10:34:04.888Z,82
2023-02-03T10:36:05.552Z,82
2023-02-03T10:38:07.116Z,82
2023-02-03T10:40:04.999Z,82
2023-02-03T10:42:06.509Z,82
2023-02-03T10:46:04.908Z,83
2023-02-03T10:48:04.825Z,83
2023-02-03T10:50:04.853Z,83
2023-02-03T10:52:04.910Z,83
2023-02-03T10:54:04.915Z,83
2023-02-03T10:58:04.863Z,83
2023-02-03T11:00:04.958Z,83
2023-02-03T11:04:01.838Z,83
2023-02-03T11:06:08.171Z,83
2023-02-03T11:08:07.888Z,83
2023-02-03T11:10:08.208Z,83
2023-02-03T11:12:07.000Z,83
2023-02-03T11:14:04.934Z,83
2023-02-03T11:16:05.117Z,83
2023-02-03T11:18:04.541Z,83
2023-02-03T11:22:04.906Z,83
2023-02-03T11:24:01.713Z,82
2023-02-03T11:26:07.801Z,81
2023-02-03T11:28:04.914Z,81
2023-02-03T11:30:04.880Z,80
2023-02-03T11:32:07.961Z,81
2023-02-03T11:34:07.860Z,81
2023-02-03T11:36:04.963Z,81
2023-02-03T11:40:05.029Z,82
2023-02-03T11:42:04.853Z,81
2023-02-03T11:44:07.695Z,82
2023-02-03T11:46:05.059Z,82
2023-02-03T11:48:04.948Z,82
2023-02-03T11:50:04.902Z,82
2023-02-03T11:52:07.363Z,82
2023-02-03T11:54:04.915Z,82
2023-02-03T11:58:04.966Z,82
2023-02-03T12:00:03.227Z,82
2023-02-03T12:04:05.072Z,82
2023-02-03T12:06:05.160Z,82
2023-02-03T12:10:04.819Z,82
2023-02-03T12:12:04.781Z,82
2023-02-03T12:14:08.152Z,82
2023-02-03T12:16:04.318Z,82
2023-02-03T12:20:08.207Z,82
2023-02-03T12:22:07.890Z,82
2023-02-03T12:24:07.601Z,82
2023-02-03T12:28:01.865Z,82
2023-02-03T12:30:07.149Z,81
2023-02-03T12:34:04.917Z,81
2023-02-03T12:36:05.205Z,81
2023-02-03T12:40:04.932Z,81
2023-02-03T12:42:06.649Z,81
2023-02-03T12:44:08.022Z,80
2023-02-03T12:46:05.096Z,81
2023-02-03T12:48:05.188Z,81
2023-02-03T12:52:08.097Z,80
2023-02-03T12:54:04.490Z,80
2023-02-03T12:58:11.212Z,80
2023-02-03T13:00:02.330Z,80
2023-02-03T13:02:08.045Z,80
2023-02-03T13:04:04.675Z,80
2023-02-03T13:06:05.024Z,80
2023-02-03T13:08:06.753Z,80
2023-02-03T13:10:05.041Z,80
2023-02-03T13:12:04.970Z,80
2023-02-03T13:16:06.936Z,80
2023-02-03T13:18:08.397Z,80
2023-02-03T13:22:04.789Z,81
2023-02-03T13:24:04.967Z,80
2023-02-03T13:26:04.919Z,81
2023-02-03T13:28:05.006Z,80
2023-02-03T13:30:07.488Z,80
2023-02-03T13:34:06.490Z,80
2023-02-03T13:36:01.746Z,80
2023-02-03T13:38:05.269Z,81
2023-02-03T13:40:04.538Z,80
2023-02-03T13:42:04.948Z,80
2023-02-03T13:46:05.955Z,80
2023-02-03T13:48:04.954Z,81
2023-02-03T13:52:07.800Z,80
2023-02-03T13:54:05.258Z,80
2023-02-03T13:56:06.746Z,81
2023-02-03T13:58:01.886Z,81
2023-02-03T14:00:05.769Z,81
2023-02-03T14:04:05.238Z,81
2023-02-03T14:06:04.796Z,81
2023-02-03T14:08:04.879Z,80
2023-02-03T14:10:05.011Z,80
2023-02-03T14:12:02.270Z,80
2023-02-03T14:14:08.341Z,80
2023-02-03T14:16:06.089Z,80
2023-02-03T14:18:04.939Z,80
2023-02-03T14:22:05.254Z,80
2023-02-03T14:24:08.055Z,80
2023-02-03T14:26:08.057Z,80
2023-02-03T14:28:08.112Z,80
2023-02-03T14:30:08.064Z,80
2023-02-03T14:32:07.206Z,80
2023-02-03T14:34:08.424Z,80
2023-02-03T14:36:04.939Z,80
2023-02-03T14:38:07.865Z,80
2023-02-03T14:40:10.516Z,80
2023-02-03T14:42:04.934Z,80
2023-02-03T14:46:10.890Z,80
2023-02-03T14:48:05.263Z,80
2023-02-03T14:50:03.537Z,80
2023-02-03T14:54:07.061Z,80
2023-02-03T14:56:04.904Z,80
2023-02-03T14:58:04.930Z,80
2023-02-03T15:00:08.350Z,80
2023-02-03T15:02:08.523Z,80
2023-02-03T15:04:04.989Z,80
2023-02-03T15:06:04.943Z,81
2023-02-03T15:10:05.004Z,81
2023-02-03T15:12:09.675Z,81
2023-02-03T15:14:01.880Z,81
2023-02-03T15:16:08.489Z,81
2023-02-03T15:18:06.129Z,81
2023-02-03T15:20:05.052Z,81
2023-02-03T15:22:07.831Z,81
2023-02-03T15:24:05.190Z,81
2023-02-03T15:26:04.993Z,81
2023-02-03T15:28:05.090Z,82
2023-02-03T15:30:04.873Z,81
2023-02-03T15:32:05.260Z,81
2023-02-03T15:34:05.012Z,82
2023-02-03T15:36:08.045Z,82
2023-02-03T15:40:05.111Z,82
2023-02-03T15:42:05.245Z,82
2023-02-03T15:44:05.393Z,82
2023-02-03T15:46:05.003Z,82
2023-02-03T15:48:04.927Z,82
2023-02-03T15:52:08.144Z,82
2023-02-03T15:54:05.006Z,83
2023-02-03T15:58:05.349Z,83
2023-02-03T16:00:05.350Z,83
2023-02-03T16:02:07.509Z,83
2023-02-03T16:04:07.820Z,84
2023-02-03T16:06:04.927Z,84
2023-02-03T16:08:07.273Z,84
2023-02-03T16:12:05.295Z,85
2023-02-03T16:14:04.994Z,85
2023-02-03T16:16:05.018Z,85
2023-02-03T16:18:04.946Z,85
2023-02-03T16:20:04.912Z,86
2023-02-03T16:22:04.941Z,86
2023-02-03T16:24:08.136Z,87
2023-02-03T16:26:08.110Z,87
2023-02-03T16:28:01.993Z,87
2023-02-03T16:30:06.599Z,87
2023-02-03T16:32:05.449Z,87
2023-02-03T16:34:03.613Z,87
2023-02-03T16:36:07.932Z,87
2023-02-03T16:38:08.048Z,87
2023-02-03T16:40:05.016Z,86
2023-02-03T16:42:07.673Z,86
2023-02-03T16:44:06.586Z,86
2023-02-03T16:46:01.851Z,87
2023-02-03T16:48:04.987Z,86
2023-02-03T16:50:07.981Z,87
2023-02-03T16:52:04.542Z,86
2023-02-03T16:54:05.582Z,87
2023-02-03T16:56:08.360Z,86
2023-02-03T16:58:04.971Z,87
2023-02-03T17:00:08.311Z,86
2023-02-03T17:04:03.758Z,87
2023-02-03T17:06:04.923Z,87
2023-02-03T17:08:08.194Z,87
2023-02-03T17:10:04.966Z,87
2023-02-03T17:12:07.653Z,86
2023-02-03T17:16:07.947Z,87
2023-02-03T17:18:01.812Z,87
2023-02-03T17:22:04.633Z,87
2023-02-03T17:24:04.998Z,87
2023-02-03T17:30:01.919Z,87
2023-02-03T17:32:08.273Z,86
2023-02-03T17:34:05.072Z,86
2023-02-03T17:36:06.949Z,86
2023-02-03T17:38:04.979Z,86
2023-02-03T17:54:04.928Z,85
2023-02-03T17:56:05.027Z,86
2023-02-03T17:58:04.996Z,86
2023-02-03T18:00:05.455Z,86
2023-02-03T18:02:04.661Z,86
2023-02-03T18:04:04.952Z,86
2023-02-03T18:06:01.698Z,86
2023-02-03T18:10:08.134Z,86
2023-02-03T18:12:04.908Z,86
2023-02-03T18:14:04.885Z,87
2023-02-03T18:16:04.910Z,87
2023-02-03T18:18:04.906Z,87
2023-02-03T18:20:04.676Z,87
2023-02-03T18:22:05.031Z,87
2023-02-03T18:24:04.998Z,86
2023-02-03T18:26:04.936Z,87
2023-02-03T18:28:01.822Z,87
2023-02-03T18:30:06.169Z,87
2023-02-03T18:34:22.879Z,87
2023-02-03T18:36:20.715Z,88
2023-02-03T18:40:19.532Z,88
2023-02-03T18:42:19.447Z,88
2023-02-03T18:44:22.181Z,88
2023-02-03T18:46:19.437Z,88
2023-02-03T18:48:19.725Z,88
2023-02-03T18:52:18.955Z,88
2023-02-03T18:54:19.150Z,88
2023-02-03T18:58:19.405Z,88
2023-02-03T19:00:21.373Z,88
2023-02-03T19:02:22.536Z,88
2023-02-03T19:04:19.400Z,88
2023-02-03T19:06:21.389Z,89
2023-02-03T19:08:22.242Z,89
2023-02-03T19:10:16.623Z,89
2023-02-03T19:12:22.223Z,89
2023-02-03T19:16:19.483Z,89
2023-02-03T19:18:21.181Z,89
2023-02-03T19:22:19.446Z,89
2023-02-03T19:24:19.416Z,89
2023-02-03T19:28:29.805Z,89
2023-02-03T19:30:19.535Z,90
2023-02-03T19:34:18.386Z,89
2023-02-03T19:36:19.401Z,90
2023-02-03T19:40:19.961Z,90
2023-02-03T19:42:20.940Z,90
2023-02-03T19:44:22.563Z,90
2023-02-03T19:46:19.463Z,90
2023-02-03T19:48:19.454Z,90
2023-02-03T19:52:19.492Z,90
2023-02-03T19:54:19.362Z,90
2023-02-03T19:58:19.429Z,90
2023-02-03T20:00:21.042Z,90
2023-02-03T20:02:22.053Z,90
2023-02-03T20:04:19.486Z,90
2023-02-03T20:06:20.464Z,90
2023-02-03T20:10:26.068Z,90
2023-02-03T20:12:21.274Z,90
2023-02-03T20:14:22.541Z,90
2023-02-03T20:16:16.820Z,90
2023-02-03T20:18:19.470Z,90
2023-02-03T20:22:19.505Z,90
2023-02-03T20:24:21.166Z,90
2023-02-03T20:28:19.538Z,90
2023-02-03T20:30:19.505Z,90
2023-02-03T20:32:22.425Z,90
2023-02-03T20:34:19.776Z,90
2023-02-03T20:36:18.999Z,90
2023-02-03T20:40:22.665Z,90
2023-02-03T20:42:19.453Z,90
2023-02-03T20:46:19.507Z,90
2023-02-03T20:48:19.481Z,90
2023-02-03T20:50:20.635Z,90
2023-02-03T20:52:16.626Z,90
2023-02-03T20:54:19.484Z,90
2023-02-03T20:58:22.676Z,90
2023-02-03T21:00:19.450Z,90
2023-02-03T21:04:22.678Z,90
2023-02-03T21:06:19.425Z,90
2023-02-03T21:08:22.905Z,90
2023-02-03T21:10:17.992Z,90
2023-02-03T21:12:21.724Z,90
2023-02-03T21:14:21.040Z,90
2023-02-03T21:16:16.674Z,90
2023-02-03T21:18:19.414Z,90
2023-02-03T21:20:22.376Z,90
2023-02-03T21:22:19.037Z,90
2023-02-03T21:24:20.775Z,90
2023-02-03T21:26:22.550Z,90
2023-02-03T21:28:19.491Z,90
2023-02-03T21:30:22.648Z,90
2023-02-03T21:32:22.617Z,90
2023-02-03T21:34:20.597Z,90
2023-02-03T21:36:20.852Z,90
2023-02-03T21:38:22.565Z,90
2023-02-03T21:40:19.559Z,90
2023-02-03T21:42:19.459Z,90
2023-02-03T21:46:22.699Z,90
2023-02-03T21:48:22.643Z,90
2023-02-03T21:52:19.467Z,90
2023-02-03T21:54:19.413Z,90
2023-02-03T21:58:22.266Z,90
2023-02-03T22:00:23.010Z,90
2023-02-03T22:02:22.627Z,90
2023-02-03T22:04:19.431Z,90
2023-02-03T22:06:19.431Z,90
2023-02-03T22:10:21.138Z,91
2023-02-03T22:12:19.442Z,91
2023-02-03T22:16:21.117Z,90
2023-02-03T22:18:22.642Z,91
2023-02-03T22:20:22.701Z,91
2023-02-03T22:22:19.438Z,90
2023-02-03T22:24:19.308Z,91
2023-02-03T22:28:19.581Z,90
2023-02-03T22:30:19.146Z,91
2023-02-03T22:32:22.665Z,91
2023-02-03T22:34:19.504Z,91
2023-02-03T22:36:19.477Z,91
2023-02-03T22:38:22.647Z,91
2023-02-03T22:40:19.613Z,91
2023-02-03T22:42:18.687Z,91
2023-02-03T22:46:22.636Z,91
2023-02-03T22:48:19.533Z,91
2023-02-03T22:50:34.580Z,91
2023-02-03T22:52:19.466Z,91
2023-02-03T22:58:19.221Z,91
2023-02-03T23:00:19.882Z,91
2023-02-03T23:02:22.695Z,91
2023-02-03T23:04:19.509Z,91
2023-02-03T23:06:19.495Z,91
2023-02-03T23:10:22.638Z,91
2023-02-03T23:12:19.481Z,91
2023-02-03T23:16:19.552Z,91
2023-02-03T23:18:21.972Z,91
2023-02-03T23:22:20.372Z,91
2023-02-03T23:24:19.728Z,91
2023-02-03T23:28:19.560Z,91
2023-02-03T23:30:16.621Z,91
2023-02-03T23:34:19.549Z,90
2023-02-03T23:36:19.416Z,90
2023-02-03T23:38:23.260Z,90
2023-02-03T23:40:19.469Z,90
2023-02-03T23:42:20.823Z,90
2023-02-03T23:46:25.868Z,90
2023-02-03T23:48:19.502Z,90
2023-02-03T23:52:22.580Z,90
2023-02-03T23:54:19.889Z,90
2023-02-03T23:56:22.697Z,90
2023-02-03T23:58:22.669Z,90
